createdAt,value
2022-10-06T00:01:27.048Z,6.68
2022-10-06T00:03:54.807Z,6.93
2022-10-06T00:06:22.148Z,8.02
2022-10-06T00:08:49.580Z,7.75
2022-10-06T00:11:17.563Z,8.35
2022-10-06T00:13:45.221Z,8.20
2022-10-06T00:16:21.706Z,8.55
2022-10-06T00:18:49.865Z,8.10
2022-10-06T00:21:17.696Z,9.10
2022-10-06T00:23:45.422Z,8.23
2022-10-06T00:26:17.322Z,7.68
2022-10-06T00:28:48.741Z,6.62
2022-10-06T00:31:19.441Z,6.10
2022-10-06T00:33:46.968Z,5.47
2022-10-06T00:36:14.474Z,4.78
2022-10-06T00:38:42.275Z,5.07
2022-10-06T00:41:15.844Z,5.35
2022-10-06T00:43:48.026Z,5.10
2022-10-06T00:46:21.153Z,5.30
2022-10-06T00:48:52.728Z,5.80
2022-10-06T00:51:21.038Z,5.72
2022-10-06T00:53:49.227Z,5.40
2022-10-06T00:56:16.817Z,5.78
2022-10-06T00:58:44.170Z,5.72
2022-10-06T01:01:12.606Z,5.72
2022-10-06T01:03:44.302Z,5.30
2022-10-06T01:06:12.147Z,5.45
2022-10-06T01:08:39.726Z,5.28
2022-10-06T01:11:13.321Z,5.00
2022-10-06T01:13:44.572Z,5.65
2022-10-06T01:16:17.558Z,5.50
2022-10-06T01:18:47.283Z,5.10
2022-10-06T01:21:31.509Z,5.95
2022-10-06T01:24:04.552Z,5.95
2022-10-06T01:26:34.063Z,6.20
2022-10-06T01:29:01.902Z,6.35
2022-10-06T01:31:29.874Z,6.60
2022-10-06T01:33:57.917Z,6.47
2022-10-06T01:36:25.596Z,6.70
2022-10-06T01:38:53.034Z,6.75
2022-10-06T01:41:21.755Z,6.97
2022-10-06T01:43:49.628Z,6.82
2022-10-06T01:46:17.123Z,6.55
2022-10-06T01:48:44.518Z,6.97
2022-10-06T01:51:18.879Z,5.85
2022-10-06T01:53:46.358Z,6.20
2022-10-06T01:56:14.081Z,6.15
2022-10-06T01:58:41.665Z,5.70
2022-10-06T02:01:10.382Z,5.20
2022-10-06T02:03:39.224Z,6.68
2022-10-06T02:06:07.934Z,5.97
2022-10-06T02:08:36.172Z,5.60
2022-10-06T02:11:06.431Z,6.97
2022-10-06T02:13:33.826Z,6.47
2022-10-06T02:16:01.387Z,6.20
2022-10-06T02:18:29.464Z,6.18
2022-10-06T02:20:57.406Z,8.50
2022-10-06T02:23:24.739Z,7.37
2022-10-06T02:26:03.653Z,6.47
2022-10-06T02:28:32.455Z,6.85
2022-10-06T02:31:05.304Z,6.03
2022-10-06T02:33:33.401Z,6.30
2022-10-06T02:36:01.310Z,6.15
2022-10-06T02:38:30.438Z,8.68
2022-10-06T02:40:59.728Z,7.20
2022-10-06T02:43:31.912Z,6.90
2022-10-06T02:46:19.395Z,6.78
2022-10-06T02:48:46.990Z,6.90
2022-10-06T02:51:17.213Z,7.00
2022-10-06T02:53:48.241Z,7.03
2022-10-06T02:56:20.115Z,7.05
2022-10-06T02:58:48.121Z,6.55
2022-10-06T03:01:20.881Z,6.97
2022-10-06T03:03:48.513Z,6.50
2022-10-06T03:06:22.745Z,5.68
2022-10-06T03:09:02.065Z,6.75
2022-10-06T03:11:35.139Z,6.62
2022-10-06T03:14:03.872Z,6.07
2022-10-06T03:16:38.814Z,6.22
2022-10-06T03:19:07.391Z,6.28
2022-10-06T03:21:37.608Z,6.15
2022-10-06T03:24:05.808Z,5.55
2022-10-06T03:26:36.211Z,6.03
2022-10-06T03:29:09.133Z,6.20
2022-10-06T03:31:40.174Z,6.10
2022-10-06T03:34:08.173Z,5.90
2022-10-06T03:36:36.475Z,5.93
2022-10-06T03:39:05.464Z,7.55
2022-10-06T03:41:35.266Z,6.43
2022-10-06T03:44:03.194Z,6.90
2022-10-06T03:46:34.037Z,6.30
2022-10-06T03:49:02.100Z,6.47
2022-10-06T03:51:32.447Z,6.85
2022-10-06T03:54:00.275Z,6.97
2022-10-06T03:56:28.489Z,6.78
2022-10-06T03:59:03.825Z,6.35
2022-10-06T04:01:36.622Z,7.03
2022-10-06T04:04:05.380Z,6.95
2022-10-06T04:06:36.418Z,7.53
2022-10-06T04:09:08.492Z,7.90
2022-10-06T04:11:40.173Z,8.02
2022-10-06T04:14:10.566Z,8.68
2022-10-06T04:16:43.754Z,7.18
2022-10-06T04:19:13.300Z,7.93
2022-10-06T04:21:43.441Z,7.78
2022-10-06T04:24:12.097Z,7.95
2022-10-06T04:26:42.084Z,7.53
2022-10-06T04:29:09.465Z,7.28
2022-10-06T04:31:39.296Z,6.62
2022-10-06T04:34:09.045Z,6.62
2022-10-06T04:36:41.081Z,7.50
2022-10-06T04:39:11.198Z,7.30
2022-10-06T04:41:41.667Z,6.15
2022-10-06T04:44:10.339Z,6.30
2022-10-06T04:46:43.116Z,6.78
2022-10-06T04:49:18.884Z,6.45
2022-10-06T04:51:49.703Z,6.55
2022-10-06T04:54:19.091Z,6.80
2022-10-06T04:56:46.913Z,7.05
2022-10-06T04:59:15.285Z,7.12
2022-10-06T05:01:43.251Z,7.03
2022-10-06T05:04:10.882Z,9.05
2022-10-06T05:06:41.309Z,9.65
2022-10-06T05:09:14.713Z,8.25
2022-10-06T05:11:42.917Z,7.75
2022-10-06T05:14:11.844Z,9.32
2022-10-06T05:16:39.670Z,10.38
2022-10-06T05:19:08.253Z,11.18
2022-10-06T05:21:37.634Z,9.90
2022-10-06T05:24:07.095Z,9.98
2022-10-06T05:26:35.887Z,9.38
2022-10-06T05:29:04.093Z,8.82
2022-10-06T05:31:38.979Z,7.90
2022-10-06T05:34:07.307Z,7.72
2022-10-06T05:36:35.215Z,7.62
2022-10-06T05:39:03.858Z,7.85
2022-10-06T05:41:33.875Z,7.72
2022-10-06T05:44:02.064Z,7.87
2022-10-06T05:46:32.315Z,8.52
2022-10-06T05:49:06.167Z,8.18
2022-10-06T05:51:35.810Z,7.50
2022-10-06T05:54:04.386Z,7.15
2022-10-06T05:56:38.444Z,6.25
2022-10-06T05:59:07.060Z,6.07
2022-10-06T06:01:40.159Z,6.70
2022-10-06T06:04:10.397Z,6.68
2022-10-06T06:06:40.706Z,6.60
2022-10-06T06:09:18.445Z,6.43
2022-10-06T06:11:48.670Z,6.50
2022-10-06T06:14:19.239Z,6.35
2022-10-06T06:16:47.701Z,6.37
2022-10-06T06:19:15.407Z,6.00
2022-10-06T06:21:43.584Z,6.00
2022-10-06T06:24:11.728Z,5.53
2022-10-06T06:26:39.271Z,5.50
2022-10-06T06:29:07.055Z,5.78
2022-10-06T06:31:38.175Z,6.32
2022-10-06T06:34:07.076Z,5.60
2022-10-06T06:36:41.103Z,5.95
2022-10-06T06:39:13.937Z,5.65
2022-10-06T06:41:47.088Z,6.50
2022-10-06T06:44:14.817Z,6.03
2022-10-06T06:46:44.880Z,6.30
2022-10-06T06:49:13.143Z,7.10
2022-10-06T06:51:43.706Z,6.85
2022-10-06T06:54:13.032Z,5.75
2022-10-06T06:56:41.371Z,6.47
2022-10-06T06:59:13.266Z,5.75
2022-10-06T07:01:45.566Z,5.90
2022-10-06T07:04:15.566Z,7.10
2022-10-06T07:06:56.977Z,6.20
2022-10-06T07:09:26.184Z,6.68
2022-10-06T07:11:55.168Z,7.93
2022-10-06T07:14:24.292Z,7.95
2022-10-06T07:17:10.323Z,8.00
2022-10-06T07:19:47.563Z,8.07
2022-10-06T07:22:35.666Z,9.13
2022-10-06T07:25:15.018Z,9.35
2022-10-06T07:27:51.126Z,10.18
2022-10-06T07:30:24.249Z,9.10
2022-10-06T07:32:52.923Z,9.18
2022-10-06T07:35:22.665Z,9.90
2022-10-06T07:37:53.228Z,11.40
2022-10-06T07:40:22.342Z,10.88
2022-10-06T07:42:52.279Z,11.30
2022-10-06T07:45:41.801Z,11.50
2022-10-06T07:48:15.711Z,10.80
2022-10-06T07:50:45.700Z,10.85
2022-10-06T07:53:13.924Z,10.38
2022-10-06T07:55:46.323Z,10.77
2022-10-06T07:58:15.704Z,11.35
2022-10-06T08:00:43.510Z,12.43
2022-10-06T08:03:12.483Z,17.50
2022-10-06T08:05:40.022Z,13.38
2022-10-06T08:08:07.542Z,11.73
2022-10-06T08:10:35.245Z,10.68
2022-10-06T08:13:06.586Z,10.45
2022-10-06T08:15:34.730Z,9.85
2022-10-06T08:18:08.745Z,9.68
2022-10-06T08:20:40.746Z,9.75
2022-10-06T08:23:12.130Z,10.63
2022-10-06T08:25:43.292Z,10.65
2022-10-06T08:28:11.404Z,9.85
2022-10-06T08:30:39.464Z,9.45
2022-10-06T08:33:06.841Z,10.00
2022-10-06T08:35:36.176Z,9.27
2022-10-06T08:38:03.623Z,9.18
2022-10-06T08:40:31.831Z,14.05
2022-10-06T08:43:02.383Z,10.05
2022-10-06T08:45:38.750Z,9.05
2022-10-06T08:48:13.958Z,9.48
2022-10-06T08:51:19.666Z,8.45
2022-10-06T08:54:17.116Z,8.43
2022-10-06T08:57:05.327Z,7.57
2022-10-06T08:59:34.974Z,7.93
2022-10-06T09:02:06.937Z,8.43
2022-10-06T09:04:34.763Z,7.85
2022-10-06T09:07:10.505Z,8.88
2022-10-06T09:10:00.629Z,8.75
2022-10-06T09:12:46.736Z,7.70
2022-10-06T09:15:33.889Z,7.80
2022-10-06T09:19:06.753Z,8.25
2022-10-06T09:21:51.799Z,7.55
2022-10-06T09:24:33.679Z,7.95
2022-10-06T09:27:20.675Z,8.63
2022-10-06T09:32:59.384Z,7.75
2022-10-06T09:35:29.543Z,6.93
2022-10-06T09:38:08.643Z,6.82
2022-10-06T09:40:49.148Z,10.48
2022-10-06T09:43:27.744Z,8.05
2022-10-06T09:45:56.618Z,4.90
2022-10-06T09:48:26.365Z,4.78
2022-10-06T09:51:17.314Z,4.65
2022-10-06T09:54:06.775Z,5.10
2022-10-06T09:56:36.301Z,4.15
2022-10-06T09:59:03.949Z,4.22
2022-10-06T10:01:32.278Z,4.45
2022-10-06T10:04:20.182Z,4.22
2022-10-06T10:06:48.860Z,3.22
2022-10-06T10:09:21.818Z,3.72
2022-10-06T10:12:27.838Z,3.40
2022-10-06T10:14:58.919Z,3.12
2022-10-06T10:17:29.193Z,3.67
2022-10-06T10:19:57.140Z,2.85
2022-10-06T10:22:33.376Z,2.87
2022-10-06T10:25:13.919Z,2.85
2022-10-06T10:28:17.614Z,3.03
2022-10-06T10:31:23.289Z,2.87
2022-10-06T10:34:23.080Z,3.50
2022-10-06T10:37:02.847Z,2.87
2022-10-06T10:39:35.158Z,2.87
2022-10-06T10:42:07.435Z,2.72
2022-10-06T10:44:43.516Z,2.47
2022-10-06T10:47:28.644Z,3.08
2022-10-06T10:50:04.477Z,3.53
2022-10-06T10:52:38.161Z,2.53
2022-10-06T10:55:19.768Z,2.70
2022-10-06T10:57:48.978Z,2.80
2022-10-06T11:00:23.007Z,2.80
2022-10-06T11:02:53.710Z,3.08
2022-10-06T11:05:33.844Z,2.37
2022-10-06T11:08:39.091Z,2.60
2022-10-06T11:11:24.830Z,2.15
2022-10-06T11:13:54.624Z,2.12
2022-10-06T11:16:29.691Z,2.45
2022-10-06T11:19:19.480Z,2.53
2022-10-06T11:22:02.149Z,2.58
2022-10-06T11:25:00.049Z,2.20
2022-10-06T11:27:30.591Z,2.60
2022-10-06T11:30:29.964Z,2.40
2022-10-06T11:33:21.019Z,2.10
2022-10-06T11:35:48.917Z,2.30
2022-10-06T11:38:19.361Z,2.22
2022-10-06T11:41:16.098Z,11.07
2022-10-06T11:44:06.920Z,2.22
2022-10-06T11:46:49.859Z,2.33
2022-10-06T11:49:29.937Z,2.60
2022-10-06T11:52:17.415Z,2.50
2022-10-06T11:54:47.831Z,2.30
2022-10-06T11:57:29.658Z,2.33
2022-10-06T12:00:04.250Z,2.72
2022-10-06T12:02:39.888Z,2.70
2022-10-06T12:05:35.701Z,2.58
2022-10-06T12:07:58.150Z,2.62
2022-10-06T12:10:28.876Z,2.25
2022-10-06T12:14:10.346Z,3.08
2022-10-06T12:19:23.301Z,3.00
2022-10-06T12:22:01.344Z,2.65
2022-10-06T12:25:04.109Z,3.10
2022-10-06T12:27:53.635Z,3.40
2022-10-06T12:30:24.208Z,3.10
2022-10-06T12:32:54.747Z,3.03
2022-10-06T12:35:29.999Z,3.35
2022-10-06T12:38:04.647Z,3.50
2022-10-06T12:40:55.540Z,3.15
2022-10-06T12:43:23.397Z,3.03
2022-10-06T12:46:08.177Z,2.72
2022-10-06T12:49:07.130Z,2.78
2022-10-06T12:51:38.813Z,2.78
2022-10-06T12:54:19.596Z,2.87
2022-10-06T12:57:02.052Z,3.28
2022-10-06T12:59:35.207Z,3.70
2022-10-06T13:02:05.513Z,3.60
2022-10-06T13:04:42.670Z,3.10
2022-10-06T13:07:11.673Z,2.85
2022-10-06T13:09:40.939Z,2.83
2022-10-06T13:12:31.997Z,2.78
2022-10-06T13:15:35.223Z,2.90
2022-10-06T13:18:19.682Z,4.32
2022-10-06T13:23:26.960Z,3.20
2022-10-06T13:26:06.067Z,3.08
2022-10-06T13:28:34.390Z,2.80
2022-10-06T13:31:11.887Z,3.22
2022-10-06T13:33:40.534Z,2.97
2022-10-06T13:36:09.596Z,2.92
2022-10-06T13:38:37.521Z,3.20
2022-10-06T13:41:06.253Z,2.80
2022-10-06T13:43:39.856Z,2.25
2022-10-06T13:46:13.489Z,2.20
2022-10-06T13:49:03.564Z,2.17
2022-10-06T13:51:32.402Z,4.03
2022-10-06T13:54:03.450Z,2.53
2022-10-06T13:56:40.513Z,2.58
2022-10-06T13:59:33.331Z,2.22
2022-10-06T14:02:19.450Z,2.00
2022-10-06T14:05:36.642Z,2.65
2022-10-06T14:08:16.629Z,2.42
2022-10-06T14:10:48.355Z,2.30
2022-10-06T14:13:28.640Z,1.90
2022-10-06T14:16:01.066Z,2.75
2022-10-06T14:18:39.329Z,1.85
2022-10-06T14:21:17.979Z,2.28
2022-10-06T14:23:52.738Z,1.90
2022-10-06T14:26:28.739Z,1.85
2022-10-06T14:28:57.358Z,2.15
2022-10-06T14:31:27.288Z,2.53
2022-10-06T14:33:56.318Z,3.70
2022-10-06T14:36:28.639Z,2.40
2022-10-06T14:38:57.992Z,2.50
2022-10-06T14:41:27.780Z,3.33
2022-10-06T14:44:01.708Z,2.67
2022-10-06T14:46:30.221Z,3.33
2022-10-06T14:48:58.492Z,3.05
2022-10-06T14:51:27.377Z,3.12
2022-10-06T14:53:56.888Z,3.20
2022-10-06T14:56:26.049Z,3.80
2022-10-06T14:58:53.591Z,3.33
2022-10-06T15:01:25.098Z,4.00
2022-10-06T15:03:56.797Z,4.15
2022-10-06T15:06:43.311Z,3.65
2022-10-06T15:09:11.319Z,3.40
2022-10-06T15:11:39.707Z,3.75
2022-10-06T15:14:08.731Z,3.67
2022-10-06T15:16:40.490Z,3.78
2022-10-06T15:19:09.156Z,3.92
2022-10-06T15:21:39.124Z,3.55
2022-10-06T15:24:08.250Z,3.97
2022-10-06T15:26:54.613Z,4.22
2022-10-06T15:29:22.218Z,3.90
2022-10-06T15:31:52.974Z,3.90
2022-10-06T15:34:23.652Z,3.97
2022-10-06T15:36:52.340Z,3.90
2022-10-06T15:39:21.965Z,4.40
2022-10-06T15:41:49.776Z,4.40
2022-10-06T15:44:19.603Z,4.03
2022-10-06T15:46:49.703Z,4.82
2022-10-06T15:49:22.185Z,3.75
2022-10-06T15:52:02.794Z,4.28
2022-10-06T15:54:40.937Z,4.40
2022-10-06T15:57:13.861Z,4.18
2022-10-06T15:59:44.463Z,4.70
2022-10-06T16:02:16.978Z,4.47
2022-10-06T16:04:56.477Z,4.53
2022-10-06T16:07:24.067Z,4.78
2022-10-06T16:09:52.081Z,4.75
2022-10-06T16:12:21.877Z,4.43
2022-10-06T16:14:49.396Z,4.47
2022-10-06T16:17:17.505Z,4.18
2022-10-06T16:19:45.264Z,4.60
2022-10-06T16:22:14.734Z,4.72
2022-10-06T16:24:42.640Z,5.15
2022-10-06T16:27:14.249Z,5.57
2022-10-06T16:29:41.887Z,5.15
2022-10-06T16:32:09.691Z,5.40
2022-10-06T16:34:37.088Z,5.20
2022-10-06T16:37:04.731Z,5.30
2022-10-06T16:39:32.280Z,4.97
2022-10-06T16:41:59.637Z,4.80
2022-10-06T16:44:27.251Z,5.20
2022-10-06T16:46:54.945Z,5.68
2022-10-06T16:49:24.409Z,6.40
2022-10-06T16:51:52.180Z,5.45
2022-10-06T16:54:19.642Z,6.15
2022-10-06T16:56:48.914Z,12.00
2022-10-06T16:59:23.100Z,11.00
2022-10-06T17:01:50.696Z,11.73
2022-10-06T17:04:20.762Z,9.63
2022-10-06T17:06:53.159Z,8.20
2022-10-06T17:09:25.876Z,8.73
2022-10-06T17:11:55.471Z,8.45
2022-10-06T17:14:23.848Z,8.50
2022-10-06T17:16:52.942Z,7.25
2022-10-06T17:19:22.097Z,6.87
2022-10-06T17:21:55.593Z,6.62
2022-10-06T17:24:28.420Z,6.80
2022-10-06T17:26:57.319Z,6.12
2022-10-06T17:29:26.062Z,6.75
2022-10-06T17:31:59.651Z,6.53
2022-10-06T17:34:32.415Z,6.05
2022-10-06T17:37:01.746Z,6.75
2022-10-06T17:39:30.412Z,7.00
2022-10-06T17:41:58.113Z,6.85
2022-10-06T17:44:27.526Z,6.78
2022-10-06T17:46:57.311Z,6.87
2022-10-06T17:49:25.708Z,6.57
2022-10-06T17:51:54.503Z,7.32
2022-10-06T17:54:24.626Z,7.45
2022-10-06T17:56:54.925Z,9.13
2022-10-06T17:59:25.183Z,11.20
2022-10-06T18:01:56.373Z,18.80
2022-10-06T18:04:24.714Z,19.50
2022-10-06T18:06:54.261Z,14.32
2022-10-06T18:09:22.400Z,11.80
2022-10-06T18:11:54.970Z,11.45
2022-10-06T18:14:24.688Z,11.12
2022-10-06T18:16:56.626Z,9.07
2022-10-06T18:19:30.161Z,10.65
2022-10-06T18:22:04.903Z,11.85
2022-10-06T18:24:32.536Z,14.13
2022-10-06T18:27:01.249Z,15.35
2022-10-06T18:29:31.774Z,14.35
2022-10-06T18:32:36.010Z,17.70
2022-10-06T18:37:36.395Z,14.55
2022-10-06T18:40:07.313Z,14.70
2022-10-06T18:42:37.902Z,13.57
2022-10-06T18:45:24.927Z,13.30
2022-10-06T18:48:11.192Z,13.20
2022-10-06T18:50:39.543Z,13.90
2022-10-06T18:53:07.164Z,14.98
2022-10-06T18:55:35.277Z,14.23
2022-10-06T18:58:04.732Z,13.57
2022-10-06T19:00:32.776Z,11.77
2022-10-06T19:03:00.722Z,9.05
2022-10-06T19:05:29.075Z,9.93
2022-10-06T19:07:56.795Z,14.32
2022-10-06T19:10:24.778Z,13.75
2022-10-06T19:12:52.857Z,15.10
2022-10-06T19:15:21.443Z,16.52
2022-10-06T19:17:49.936Z,18.87
2022-10-06T19:20:18.586Z,16.23
2022-10-06T19:22:48.010Z,15.60
2022-10-06T19:25:19.066Z,14.60
2022-10-06T19:27:48.412Z,14.90
2022-10-06T19:30:15.998Z,14.60
2022-10-06T19:32:43.957Z,14.38
2022-10-06T19:35:12.310Z,14.32
2022-10-06T19:37:42.961Z,15.32
2022-10-06T19:40:11.507Z,14.25
2022-10-06T19:42:48.367Z,10.68
2022-10-06T19:45:17.635Z,9.05
2022-10-06T19:47:46.715Z,8.55
2022-10-06T19:50:17.263Z,7.82
2022-10-06T19:52:45.302Z,8.35
2022-10-06T19:55:12.681Z,9.48
2022-10-06T19:57:41.799Z,9.70
2022-10-06T20:00:10.328Z,12.20
2022-10-06T20:02:42.936Z,12.07
2022-10-06T20:05:12.859Z,12.68
2022-10-06T20:07:41.387Z,11.68
2022-10-06T20:10:09.267Z,11.52
2022-10-06T20:12:38.381Z,13.73
2022-10-06T20:15:06.203Z,11.25
2022-10-06T20:17:35.314Z,11.18
2022-10-06T20:20:04.336Z,11.12
2022-10-06T20:22:31.854Z,9.77
2022-10-06T20:25:01.876Z,9.85
2022-10-06T20:27:30.046Z,9.30
2022-10-06T20:29:58.158Z,7.60
2022-10-06T20:32:25.734Z,7.93
2022-10-06T20:34:53.618Z,7.70
2022-10-06T20:37:21.213Z,7.40
2022-10-06T20:40:07.169Z,7.62
2022-10-06T20:42:34.820Z,7.87
2022-10-06T20:45:02.234Z,7.78
2022-10-06T20:47:29.869Z,7.40
2022-10-06T20:49:57.500Z,8.15
2022-10-06T20:52:24.931Z,8.13
2022-10-06T20:54:52.315Z,8.80
2022-10-06T20:57:20.037Z,8.43
2022-10-06T20:59:47.417Z,8.30
2022-10-06T21:02:14.919Z,8.25
2022-10-06T21:04:43.711Z,8.70
2022-10-06T21:07:11.462Z,10.32
2022-10-06T21:09:38.889Z,14.48
2022-10-06T21:12:06.716Z,10.77
2022-10-06T21:14:35.315Z,11.18
2022-10-06T21:17:02.757Z,9.43
2022-10-06T21:19:30.513Z,9.82
2022-10-06T21:21:58.008Z,9.63
2022-10-06T21:24:25.437Z,9.68
2022-10-06T21:26:53.141Z,9.73
2022-10-06T21:29:21.154Z,9.63
2022-10-06T21:31:48.609Z,9.18
2022-10-06T21:34:16.428Z,10.13
2022-10-06T21:36:44.500Z,9.45
2022-10-06T21:39:12.598Z,8.82
2022-10-06T21:41:41.054Z,10.23
2022-10-06T21:44:16.396Z,8.23
2022-10-06T21:46:54.908Z,8.10
2022-10-06T21:49:24.107Z,8.43
2022-10-06T21:51:53.672Z,6.97
2022-10-06T21:54:22.557Z,6.95
2022-10-06T21:56:50.608Z,6.25
2022-10-06T21:59:18.317Z,5.82
2022-10-06T22:01:47.041Z,6.40
2022-10-06T22:04:15.248Z,7.78
2022-10-06T22:06:44.149Z,7.18
2022-10-06T22:09:16.677Z,7.75
2022-10-06T22:11:44.726Z,7.12
2022-10-06T22:14:14.998Z,7.80
2022-10-06T22:16:42.617Z,7.87
2022-10-06T22:19:12.019Z,7.35
2022-10-06T22:21:44.491Z,8.07
2022-10-06T22:24:14.830Z,8.02
2022-10-06T22:26:43.392Z,8.80
2022-10-06T22:29:13.134Z,8.55
2022-10-06T22:31:43.002Z,9.45
2022-10-06T22:34:13.101Z,7.72
2022-10-06T22:36:40.983Z,6.90
2022-10-06T22:39:08.676Z,6.72
2022-10-06T22:41:36.488Z,6.55
2022-10-06T22:44:04.272Z,7.12
2022-10-06T22:46:35.592Z,8.00
2022-10-06T22:49:04.672Z,7.28
2022-10-06T22:51:32.664Z,7.15
2022-10-06T22:54:00.504Z,8.00
2022-10-06T22:56:29.691Z,7.78
2022-10-06T22:58:59.933Z,8.38
2022-10-06T23:01:29.092Z,8.00
2022-10-06T23:03:57.164Z,8.32
2022-10-06T23:06:25.233Z,8.18
2022-10-06T23:08:52.938Z,8.25
2022-10-06T23:11:21.458Z,7.87
2022-10-06T23:13:50.467Z,7.30
2022-10-06T23:16:19.621Z,8.05
2022-10-06T23:18:48.285Z,6.57
2022-10-06T23:21:21.650Z,6.90
2022-10-06T23:23:54.517Z,6.93
2022-10-06T23:26:23.070Z,7.32
2022-10-06T23:28:53.285Z,8.32
2022-10-06T23:31:20.967Z,6.45
2022-10-06T23:33:49.273Z,7.12
2022-10-06T23:36:18.174Z,5.90
2022-10-06T23:38:46.080Z,6.00
2022-10-06T23:41:13.786Z,5.90
2022-10-06T23:43:41.484Z,5.95
2022-10-06T23:46:09.227Z,6.00
2022-10-06T23:48:37.529Z,5.78
2022-10-06T23:51:07.985Z,6.05
2022-10-06T23:53:36.189Z,4.85
2022-10-06T23:56:07.313Z,5.35
2022-10-06T23:58:35.449Z,5.25
